Карточка аэропорта UMGG

Внимание!
Информация на этой странице в стадии наполнения.
Если вы не увидели какой-то информации, или заметили неточность - пожалуйста сообщите нам!
Спасибо!
Команда XR-STAFF
Название аэропортаGomel
Название аэропорта (англ.)Gomel
Превышение471 ft. (143.6 m.)
Координаты52°31.614', 31°1.002'
Высота перехода6000 ft
Эшелон переходаQNH>=733mm:FL80; QNH<733mm:FL90
Коды ответчика0030−0032
Зона ОрВДМинск РПИ (UMMV)
Данные METARUMGG 160930Z 28008G12MPS 9999 FEW040 14/03 Q1015 NOSIG
Проноз погоды (TAF)UMGG 160458Z 1606/1706 30006G11MPS CAVOK TEMPO 1608/1617 31009G14MPS BECMG 1617/1619 28006MPS 9999 BKN025 TEMPO 1700/1706 -SHRA SCT030CB
NOTAMshow/hide NOTAM
AWOS   TABLE

Информация о ВПП

ВПП Длина ВПП (м.) Покрытие Курс ВПП Частота ILS
102569Цементобетон103109.3
282569Цементобетон283108.7

Диспетчерские позиции

Позывной Наименование органа УВД Частота
UMGG_TWRHomiel Tower118.100
UMGG_APPHomiel Approach126.100



Спутниковое изображение